Time;durP1;ratioP1;P1;durP2;ratioP2;P2;SDS_P1;SDS_P2;PMS_P1;PMS_P2;Temp;Humidity;BMP_temperature;BMP_pressure;BME280_temperature;BME280_humidity;BME280_pressure;Samples;Min_cycle;Max_cycle;Signal;HPM_P1;HPM_P2
2024/01/16 00:01:08;;;;;;;;;;;;;;;3.04;54.06;97946.97;4420213;32;32977;-89
2024/01/16 00:03:37;;;;;;;;;;;;;;;2.93;54.55;97939.91;4421081;32;33341;-89
2024/01/16 00:06:06;;;;;;;;;;;;;;;2.31;56.46;97954.59;4428091;32;34785;-90
2024/01/16 00:08:34;;;;;;;;;;;;;;;2.49;56.05;97954.19;4421694;32;32396;-90
2024/01/16 00:11:02;;;;;;;;;;;;;;;2.48;56.28;97959.28;4409146;32;33402;-89
2024/01/16 00:13:29;;;;;;;;;;;;;;;2.66;55.84;97958.03;4419008;32;33978;-90
2024/01/16 00:15:57;;;;;;;;;;;;;;;2.90;55.07;97967.97;4419188;32;33456;-90
2024/01/16 00:18:24;;;;;;;;;;;;;;;3.08;54.64;97967.56;4418456;32;32159;-90
2024/01/16 00:20:52;;;;;;;;;;;;;;;3.04;55.01;97975.13;4419918;32;33380;-89
2024/01/16 00:23:20;;;;;;;;;;;;;;;2.85;55.42;97971.28;4421017;32;33278;-91
2024/01/16 00:25:47;;;;;;;;;;;;;;;2.53;56.34;97980.72;4416106;32;33510;-90
2024/01/16 00:28:15;;;;;;;;;;;;;;;2.80;55.79;97976.25;4427862;32;32094;-89
2024/01/16 00:30:42;;;;;;;;;;;;;;;3.12;55.01;97973.63;4421425;32;34214;-89
2024/01/16 00:33:12;;;;;;;;;;;;;;;2.87;55.56;97970.47;4410271;32;34277;-88
2024/01/16 00:35:39;;;;;;;;;;;;;;;3.05;55.03;97984.53;4418328;32;33344;-89
2024/01/16 00:38:06;;;;;;;;;;;;;;;2.58;56.60;97994.50;4418481;32;33960;-88
2024/01/16 00:40:34;;;;;;;;;;;;;;;2.66;56.21;97996.41;4418561;32;33153;-90
2024/01/16 00:43:02;;;;;;;;;;;;;;;3.06;55.39;97999.06;4408905;32;33532;-89
2024/01/16 00:45:30;;;;;;;;;;;;;;;2.71;55.97;98011.03;4428998;32;34156;-89
2024/01/16 00:47:58;;;;;;;;;;;;;;;2.36;56.81;98018.66;4433794;32;34753;-89
2024/01/16 00:50:26;;;;;;;;;;;;;;;2.95;55.38;98014.16;4417984;32;33974;-89
2024/01/16 00:52:53;;;;;;;;;;;;;;;2.97;54.67;98019.34;4424301;32;33514;-90
2024/01/16 00:55:21;;;;;;;;;;;;;;;3.26;54.31;98030.25;4431332;32;34028;-89
2024/01/16 00:57:48;;;;;;;;;;;;;;;3.33;53.88;98033.03;4431250;32;33215;-90
2024/01/16 01:00:16;;;;;;;;;;;;;;;3.19;54.67;98042.06;4419925;32;34804;-89
2024/01/16 01:02:44;;;;;;;;;;;;;;;3.36;53.98;98043.31;4418324;32;33569;-88
2024/01/16 01:05:11;;;;;;;;;;;;;;;3.45;53.63;98039.22;4419622;32;33535;-90
2024/01/16 01:07:38;;;;;;;;;;;;;;;3.30;54.53;98050.87;4432298;32;33345;-90
2024/01/16 01:10:06;;;;;;;;;;;;;;;3.05;54.90;98049.41;4408362;32;33330;-89
2024/01/16 01:12:33;;;;;;;;;;;;;;;3.10;54.34;98054.62;4395679;32;34367;-88
2024/01/16 01:15:01;;;;;;;;;;;;;;;2.55;55.51;98063.50;4408215;32;34009;-89
2024/01/16 01:17:30;;;;;;;;;;;;;;;2.19;56.48;98059.09;4436666;32;33967;-89
2024/01/16 01:19:57;;;;;;;;;;;;;;;2.33;56.33;98065.47;4435866;32;33843;-89
2024/01/16 01:22:25;;;;;;;;;;;;;;;2.40;56.26;98066.50;4423083;32;33309;-89
2024/01/16 01:24:52;;;;;;;;;;;;;;;3.00;54.67;98068.06;4410053;32;33500;-90
2024/01/16 01:27:19;;;;;;;;;;;;;;;2.60;55.43;98065.34;4422657;32;33224;-90
2024/01/16 01:29:47;;;;;;;;;;;;;;;3.03;54.26;98065.56;4423117;32;34214;-88
2024/01/16 01:32:15;;;;;;;;;;;;;;;2.53;55.32;98072.81;4410174;32;33528;-90
2024/01/16 01:34:42;;;;;;;;;;;;;;;2.64;55.06;98076.53;4410201;32;33384;-90
2024/01/16 01:37:09;;;;;;;;;;;;;;;2.74;54.76;98072.53;4410060;32;32410;-92
2024/01/16 01:39:58;;;;;;;;;;;;;;;2.71;54.85;98072.44;4436287;32;33743;-92
2024/01/16 01:42:26;;;;;;;;;;;;;;;2.56;55.31;98070.34;4425036;32;34791;-92
2024/01/16 01:44:53;;;;;;;;;;;;;;;2.78;54.68;98071.78;4412678;32;33725;-91
2024/01/16 01:47:21;;;;;;;;;;;;;;;2.48;55.50;98076.94;4419298;32;33512;-92
2024/01/16 01:49:51;;;;;;;;;;;;;;;2.15;56.56;98075.19;4408195;32;32992;-92
2024/01/16 01:52:18;;;;;;;;;;;;;;;2.34;56.08;98074.88;4408259;32;34814;-93
2024/01/16 01:54:45;;;;;;;;;;;;;;;2.34;56.28;98077.41;4408359;32;33693;-94
2024/01/16 01:57:13;;;;;;;;;;;;;;;2.53;55.56;98076.22;4400824;32;33169;-92
2024/01/16 01:59:40;;;;;;;;;;;;;;;2.21;56.49;98074.50;4390042;32;34175;-90
2024/01/16 02:02:11;;;;;;;;;;;;;;;2.66;55.15;98082.56;4370589;32;33902;-93
2024/01/16 02:04:42;;;;;;;;;;;;;;;2.80;54.69;98095.69;4392319;32;33935;-93
2024/01/16 02:07:09;;;;;;;;;;;;;;;2.80;54.53;98100.81;4394946;32;33941;-93
2024/01/16 02:09:37;;;;;;;;;;;;;;;2.93;54.07;98101.19;4421006;32;33492;-92
2024/01/16 02:12:05;;;;;;;;;;;;;;;3.32;53.22;98104.69;4420917;32;34220;-93
2024/01/16 02:14:33;;;;;;;;;;;;;;;2.74;54.87;98106.66;4407359;32;33055;-92
2024/01/16 02:17:00;;;;;;;;;;;;;;;2.64;55.09;98112.34;4406832;32;33474;-93
2024/01/16 02:19:27;;;;;;;;;;;;;;;2.95;54.39;98119.13;4420301;32;33840;-91
2024/01/16 02:21:57;;;;;;;;;;;;;;;2.88;54.55;98122.38;4419201;32;34588;-93
2024/01/16 02:24:24;;;;;;;;;;;;;;;2.81;55.00;98116.22;4406831;32;35086;-94
2024/01/16 02:26:52;;;;;;;;;;;;;;;3.09;54.31;98122.91;4407214;32;32732;-92
2024/01/16 02:29:19;;;;;;;;;;;;;;;3.16;54.12;98124.81;4419327;32;34148;-92
2024/01/16 02:31:47;;;;;;;;;;;;;;;3.04;54.01;98133.87;4418680;32;33937;-93
2024/01/16 02:34:18;;;;;;;;;;;;;;;2.68;55.41;98137.19;4407767;32;33914;-92
2024/01/16 02:36:46;;;;;;;;;;;;;;;2.66;55.53;98138.84;4420535;32;33538;-94
2024/01/16 02:39:13;;;;;;;;;;;;;;;2.88;54.81;98141.16;4419816;32;33973;-93
2024/01/16 02:41:40;;;;;;;;;;;;;;;2.16;56.35;98141.72;4399424;32;34062;-93
2024/01/16 02:44:08;;;;;;;;;;;;;;;2.57;55.79;98148.81;4407388;32;34201;-92
2024/01/16 02:46:35;;;;;;;;;;;;;;;2.34;56.20;98149.03;4425877;32;34172;-92
2024/01/16 02:49:03;;;;;;;;;;;;;;;2.67;55.33;98149.13;4411662;32;33258;-92
2024/01/16 02:51:30;;;;;;;;;;;;;;;2.57;54.99;98159.06;4418880;32;34409;-92
2024/01/16 02:53:59;;;;;;;;;;;;;;;2.79;54.36;98161.38;4419913;32;34803;-93
2024/01/16 02:56:26;;;;;;;;;;;;;;;2.64;54.84;98158.41;4419565;32;34758;-92
2024/01/16 02:58:53;;;;;;;;;;;;;;;2.26;55.67;98155.63;4403164;32;34255;-94
2024/01/16 03:01:21;;;;;;;;;;;;;;;2.21;55.33;98162.31;4396698;32;35137;-93
2024/01/16 03:03:48;;;;;;;;;;;;;;;2.08;56.06;98170.41;4432392;32;35384;-90
2024/01/16 03:06:24;;;;;;;;;;;;;;;1.83;56.58;98171.37;4427568;32;33040;-93
2024/01/16 03:08:51;;;;;;;;;;;;;;;2.17;55.77;98163.03;4412695;32;32806;-92
2024/01/16 03:11:19;;;;;;;;;;;;;;;2.47;54.78;98164.75;4418848;32;35199;-92
2024/01/16 03:13:52;;;;;;;;;;;;;;;2.52;54.44;98168.31;4406646;32;33242;-94
2024/01/16 03:16:20;;;;;;;;;;;;;;;2.13;55.15;98174.88;4408486;32;33711;-95
2024/01/16 03:18:47;;;;;;;;;;;;;;;2.38;55.11;98175.56;4419525;32;32812;-93
2024/01/16 03:21:15;;;;;;;;;;;;;;;2.49;54.60;98178.44;4419833;32;35083;-93
2024/01/16 03:23:42;;;;;;;;;;;;;;;2.26;54.54;98178.63;4419720;32;34461;-92
2024/01/16 03:26:16;;;;;;;;;;;;;;;2.39;54.11;98180.75;4406463;32;31951;-92
2024/01/16 03:28:45;;;;;;;;;;;;;;;1.82;55.54;98200.28;4418259;32;34871;-91
2024/01/16 03:31:13;;;;;;;;;;;;;;;2.15;54.87;98192.78;4417207;32;33339;-92
2024/01/16 03:33:42;;;;;;;;;;;;;;;2.28;54.39;98189.78;4419654;32;34025;-92
2024/01/16 03:36:12;;;;;;;;;;;;;;;2.32;54.00;98199.28;4408216;32;32147;-92
2024/01/16 03:38:41;;;;;;;;;;;;;;;2.39;54.12;98202.91;4406572;32;32956;-91
2024/01/16 03:41:37;;;;;;;;;;;;;;;2.73;52.57;98203.84;4428575;32;34194;-91
2024/01/16 03:44:06;;;;;;;;;;;;;;;2.82;52.01;98207.53;4406744;32;33116;-91
2024/01/16 03:46:34;;;;;;;;;;;;;;;2.61;52.77;98204.38;4405372;32;32829;-93
2024/01/16 03:49:01;;;;;;;;;;;;;;;2.74;52.53;98205.59;4406605;32;33179;-91
2024/01/16 03:51:31;;;;;;;;;;;;;;;2.90;51.74;98206.06;4419770;32;34871;-93
2024/01/16 03:54:00;;;;;;;;;;;;;;;3.01;52.03;98215.72;4419899;32;34219;-92
2024/01/16 03:56:27;;;;;;;;;;;;;;;2.66;52.98;98211.38;4419621;32;33952;-92
2024/01/16 03:58:54;;;;;;;;;;;;;;;3.04;51.47;98215.81;4419544;32;32957;-91
2024/01/16 04:01:37;;;;;;;;;;;;;;;3.07;51.19;98211.66;4419956;32;34972;-91
2024/01/16 04:04:06;;;;;;;;;;;;;;;2.83;51.85;98216.94;4403929;32;33588;-93
2024/01/16 04:06:34;;;;;;;;;;;;;;;2.44;51.96;98226.91;4417138;32;33432;-91
2024/01/16 04:09:02;;;;;;;;;;;;;;;2.86;51.44;98222.16;4418714;32;33701;-92
2024/01/16 04:11:34;;;;;;;;;;;;;;;2.81;51.83;98228.84;4407615;32;34150;-93
2024/01/16 04:14:04;;;;;;;;;;;;;;;2.78;51.82;98228.75;4381888;32;34118;-92
2024/01/16 04:16:32;;;;;;;;;;;;;;;3.11;50.55;98238.22;4407106;32;33335;-92
2024/01/16 04:19:03;;;;;;;;;;;;;;;2.11;53.00;98240.41;4406818;32;34659;-92
2024/01/16 04:21:30;;;;;;;;;;;;;;;2.63;52.06;98238.56;4407385;32;33331;-93
2024/01/16 04:23:57;;;;;;;;;;;;;;;2.60;52.10;98243.59;4406312;32;32490;-91
2024/01/16 04:26:25;;;;;;;;;;;;;;;2.67;51.67;98240.37;4444380;32;32274;-92
2024/01/16 04:28:52;;;;;;;;;;;;;;;3.09;50.81;98250.09;4406294;32;33194;-93
2024/01/16 04:31:22;;;;;;;;;;;;;;;2.66;51.55;98254.00;4406287;32;33212;-90
2024/01/16 04:33:49;;;;;;;;;;;;;;;2.29;52.75;98265.69;4419048;32;34532;-93
2024/01/16 04:36:17;;;;;;;;;;;;;;;2.02;53.42;98259.72;4418284;32;32959;-93
2024/01/16 04:38:44;;;;;;;;;;;;;;;2.06;53.12;98267.53;4419064;32;33835;-93
2024/01/16 04:41:12;;;;;;;;;;;;;;;2.51;52.22;98268.91;4405019;32;33920;-91
2024/01/16 04:43:39;;;;;;;;;;;;;;;2.56;51.88;98267.34;4397230;32;33342;-92
2024/01/16 04:46:06;;;;;;;;;;;;;;;2.39;51.97;98279.66;4400793;32;32397;-91
2024/01/16 04:48:34;;;;;;;;;;;;;;;2.64;51.96;98278.66;4421014;32;32684;-93
2024/01/16 04:51:01;;;;;;;;;;;;;;;2.15;52.79;98288.25;4423933;32;33635;-93
2024/01/16 04:53:29;;;;;;;;;;;;;;;2.67;51.45;98291.56;4423399;32;34771;-93
2024/01/16 04:55:56;;;;;;;;;;;;;;;2.60;51.29;98287.94;4411097;32;33354;-92
2024/01/16 04:58:23;;;;;;;;;;;;;;;2.31;51.99;98297.31;4423727;32;34243;-93
2024/01/16 05:00:51;;;;;;;;;;;;;;;2.15;52.16;98300.19;4408228;32;34171;-92
2024/01/16 05:03:18;;;;;;;;;;;;;;;2.59;50.89;98293.03;4420517;32;34516;-93
2024/01/16 05:05:46;;;;;;;;;;;;;;;2.63;51.06;98300.84;4422921;32;33601;-92
2024/01/16 05:08:13;;;;;;;;;;;;;;;2.88;50.09;98297.31;4409513;32;32615;-93
2024/01/16 05:10:41;;;;;;;;;;;;;;;2.29;51.49;98301.50;4423658;32;34388;-92
2024/01/16 05:13:12;;;;;;;;;;;;;;;2.24;51.12;98309.84;4410466;32;34264;-93
2024/01/16 05:15:42;;;;;;;;;;;;;;;2.02;51.59;98313.41;4407949;32;32481;-93
2024/01/16 05:18:10;;;;;;;;;;;;;;;1.88;51.85;98316.34;4421176;32;32875;-92
2024/01/16 05:20:37;;;;;;;;;;;;;;;1.88;51.60;98324.03;4431366;32;34002;-90
2024/01/16 05:23:05;;;;;;;;;;;;;;;2.03;51.50;98326.22;4411684;32;33121;-94
2024/01/16 05:25:33;;;;;;;;;;;;;;;2.18;51.27;98321.59;4428856;32;34479;-93
2024/01/16 05:28:00;;;;;;;;;;;;;;;2.21;51.23;98327.66;4434515;32;33451;-92
2024/01/16 05:30:28;;;;;;;;;;;;;;;2.27;51.27;98336.38;4408976;32;33394;-92
2024/01/16 05:33:07;;;;;;;;;;;;;;;2.29;50.99;98331.31;4411770;32;33215;-91
2024/01/16 05:35:36;;;;;;;;;;;;;;;2.18;50.96;98343.75;4432119;32;34169;-92
2024/01/16 05:38:04;;;;;;;;;;;;;;;1.60;52.22;98339.25;4436167;32;34196;-92
2024/01/16 05:40:31;;;;;;;;;;;;;;;2.32;50.74;98352.75;4409008;32;34265;-90
2024/01/16 05:42:58;;;;;;;;;;;;;;;2.66;50.02;98356.38;4433623;32;34281;-92
2024/01/16 05:45:28;;;;;;;;;;;;;;;1.95;51.20;98355.78;4392181;32;787740;-92
2024/01/16 05:47:56;;;;;;;;;;;;;;;2.42;50.15;98357.34;4431291;32;34129;-92
2024/01/16 05:50:24;;;;;;;;;;;;;;;2.62;50.05;98360.53;4402406;32;33191;-92
2024/01/16 05:52:59;;;;;;;;;;;;;;;2.70;49.86;98367.56;4405730;32;33433;-92
2024/01/16 05:55:27;;;;;;;;;;;;;;;2.49;50.10;98362.63;4413107;32;33500;-92
2024/01/16 05:57:55;;;;;;;;;;;;;;;2.30;50.37;98366.28;4410335;32;32948;-91
2024/01/16 06:00:23;;;;;;;;;;;;;;;2.33;50.32;98372.38;4416870;32;34157;-93
2024/01/16 06:02:50;;;;;;;;;;;;;;;2.54;49.82;98366.19;4405642;32;33043;-90
2024/01/16 06:05:18;;;;;;;;;;;;;;;2.55;50.04;98378.19;4432656;32;34005;-90
2024/01/16 06:07:45;;;;;;;;;;;;;;;2.49;50.05;98375.44;4419942;32;34937;-91
2024/01/16 06:10:13;;;;;;;;;;;;;;;1.40;52.13;98382.84;4419592;32;33593;-91
2024/01/16 06:12:41;;;;;;;;;;;;;;;1.88;51.22;98377.69;4418327;32;33050;-92
2024/01/16 06:15:09;;;;;;;;;;;;;;;2.37;50.08;98381.03;4425539;32;33353;-91
2024/01/16 06:17:38;;;;;;;;;;;;;;;2.17;50.43;98380.38;4405898;32;33862;-90
2024/01/16 06:20:06;;;;;;;;;;;;;;;2.35;50.00;98396.34;4407975;32;34118;-90
2024/01/16 06:22:34;;;;;;;;;;;;;;;2.11;50.65;98380.16;4420250;32;33741;-90
2024/01/16 06:25:02;;;;;;;;;;;;;;;1.97;50.47;98381.38;4415197;32;32339;-89
2024/01/16 06:27:29;;;;;;;;;;;;;;;1.60;51.08;98385.25;4405886;32;35110;-91
2024/01/16 06:29:57;;;;;;;;;;;;;;;1.75;51.10;98390.88;4405513;32;33593;-92
2024/01/16 06:32:25;;;;;;;;;;;;;;;1.73;50.96;98387.41;4392719;32;33033;-89
2024/01/16 06:34:53;;;;;;;;;;;;;;;1.53;51.42;98386.69;4418682;32;34215;-91
2024/01/16 06:37:20;;;;;;;;;;;;;;;1.30;52.30;98406.31;4404915;32;32947;-90
2024/01/16 06:39:48;;;;;;;;;;;;;;;1.28;52.21;98413.03;4417602;32;34370;-89
2024/01/16 06:42:15;;;;;;;;;;;;;;;1.14;52.55;98419.31;4399604;32;33436;-93
2024/01/16 06:44:45;;;;;;;;;;;;;;;1.40;52.12;98426.28;4415806;32;32736;-90
2024/01/16 06:47:13;;;;;;;;;;;;;;;1.55;51.73;98431.03;4403267;32;32502;-90
2024/01/16 06:49:41;;;;;;;;;;;;;;;1.36;52.09;98431.19;4407474;32;33797;-91
2024/01/16 06:52:09;;;;;;;;;;;;;;;1.27;52.58;98446.16;4410734;32;33545;-90
2024/01/16 06:54:38;;;;;;;;;;;;;;;1.37;52.61;98451.69;4432824;32;33879;-91
2024/01/16 06:57:06;;;;;;;;;;;;;;;1.55;52.04;98455.72;4410135;32;32976;-91
2024/01/16 06:59:33;;;;;;;;;;;;;;;1.11;53.04;98460.91;4422828;32;35114;-91
2024/01/16 07:02:03;;;;;;;;;;;;;;;0.91;54.19;98472.91;4435259;32;33272;-91
2024/01/16 07:04:30;;;;;;;;;;;;;;;1.25;53.77;98484.44;4422947;32;33613;-91
2024/01/16 07:07:02;;;;;;;;;;;;;;;1.48;52.81;98485.28;4410000;32;32727;-91
2024/01/16 07:09:30;;;;;;;;;;;;;;;1.21;53.44;98483.44;4409728;32;33660;-91
2024/01/16 07:11:58;;;;;;;;;;;;;;;1.09;53.98;98502.50;4422879;32;34267;-91
2024/01/16 07:14:25;;;;;;;;;;;;;;;1.72;52.74;98500.66;4410151;32;33311;-91
2024/01/16 07:16:53;;;;;;;;;;;;;;;1.63;52.92;98506.31;4410087;32;32879;-91
2024/01/16 07:19:40;;;;;;;;;;;;;;;2.03;51.91;98501.75;4422918;32;33385;-92
2024/01/16 07:22:11;;;;;;;;;;;;;;;1.81;52.31;98513.75;4422964;32;34305;-91
2024/01/16 07:24:38;;;;;;;;;;;;;;;1.61;52.74;98517.25;4396990;32;32724;-91
2024/01/16 07:27:06;;;;;;;;;;;;;;;2.16;51.45;98526.97;4434988;32;34095;-91
2024/01/16 07:29:34;;;;;;;;;;;;;;;2.08;51.64;98521.53;4409587;32;33773;-91
2024/01/16 07:32:21;;;;;;;;;;;;;;;2.35;50.92;98521.66;4422190;32;33439;-91
2024/01/16 07:34:50;;;;;;;;;;;;;;;2.28;50.97;98519.72;4409795;32;31761;-91
2024/01/16 07:37:17;;;;;;;;;;;;;;;2.68;50.28;98514.25;4409684;32;32872;-92
2024/01/16 07:39:44;;;;;;;;;;;;;;;2.48;50.22;98522.94;4422287;32;33887;-91
2024/01/16 07:42:13;;;;;;;;;;;;;;;2.57;50.11;98524.94;4422575;32;34806;-91
2024/01/16 07:44:40;;;;;;;;;;;;;;;2.64;49.67;98532.00;4409505;32;32313;-91
2024/01/16 07:47:08;;;;;;;;;;;;;;;2.17;50.25;98536.38;4409328;32;33252;-91
2024/01/16 07:49:36;;;;;;;;;;;;;;;2.36;49.92;98546.44;4422523;32;34184;-91
2024/01/16 07:52:04;;;;;;;;;;;;;;;1.87;50.37;98537.00;4409780;32;33971;-91
2024/01/16 07:54:31;;;;;;;;;;;;;;;2.25;49.97;98546.88;4409587;32;33050;-91
2024/01/16 07:56:59;;;;;;;;;;;;;;;2.64;48.77;98542.25;4422287;32;33602;-91
2024/01/16 07:59:26;;;;;;;;;;;;;;;2.68;47.99;98544.09;4409591;32;33538;-91
2024/01/16 08:01:54;;;;;;;;;;;;;;;2.58;48.64;98550.59;4409279;32;34379;-91
2024/01/16 08:04:22;;;;;;;;;;;;;;;2.56;48.43;98547.09;4409425;32;32004;-91
2024/01/16 08:06:49;;;;;;;;;;;;;;;2.65;47.74;98555.13;4409484;32;33934;-91
2024/01/16 08:09:17;;;;;;;;;;;;;;;2.99;46.42;98556.22;4422187;32;34241;-91
2024/01/16 08:11:45;;;;;;;;;;;;;;;2.42;47.85;98564.56;4409292;32;33026;-92
2024/01/16 08:14:13;;;;;;;;;;;;;;;2.30;48.00;98569.22;4421849;32;33489;-91
2024/01/16 08:16:41;;;;;;;;;;;;;;;2.63;47.09;98572.09;4409275;32;33025;-92
2024/01/16 08:19:09;;;;;;;;;;;;;;;3.20;46.07;98570.56;4409285;32;34672;-92
2024/01/16 08:21:36;;;;;;;;;;;;;;;3.07;46.18;98579.50;4409329;32;33058;-93
2024/01/16 08:24:04;;;;;;;;;;;;;;;3.11;46.22;98581.38;4421672;32;33751;-91
2024/01/16 08:26:33;;;;;;;;;;;;;;;2.85;46.63;98578.81;4411071;32;33015;-91
2024/01/16 08:29:01;;;;;;;;;;;;;;;2.76;46.54;98577.63;4410962;32;33952;-91
2024/01/16 08:31:29;;;;;;;;;;;;;;;2.96;46.15;98581.75;4410797;32;33253;-91
2024/01/16 08:33:57;;;;;;;;;;;;;;;2.75;46.80;98589.56;4410773;32;33256;-91
2024/01/16 08:36:24;;;;;;;;;;;;;;;3.13;45.80;98587.41;4411069;32;33202;-91
2024/01/16 08:38:52;;;;;;;;;;;;;;;2.87;46.04;98587.41;4410888;32;33260;-91
2024/01/16 08:41:20;;;;;;;;;;;;;;;2.68;46.19;98592.72;4411009;32;33757;-90
2024/01/16 08:43:47;;;;;;;;;;;;;;;2.86;46.22;98601.03;4424012;32;33319;-93
2024/01/16 08:46:15;;;;;;;;;;;;;;;2.50;45.87;98597.19;4423363;32;34643;-91
2024/01/16 08:48:43;;;;;;;;;;;;;;;2.47;46.25;98599.66;4410923;32;32976;-91
2024/01/16 08:51:11;;;;;;;;;;;;;;;2.39;46.77;98602.81;4410825;32;33079;-92
2024/01/16 08:53:39;;;;;;;;;;;;;;;2.82;46.04;98598.31;4411036;32;32232;-92
2024/01/16 08:56:08;;;;;;;;;;;;;;;2.96;45.52;98593.69;4411034;32;33228;-92
2024/01/16 08:58:37;;;;;;;;;;;;;;;3.05;45.92;98596.53;4411065;32;33085;-91
2024/01/16 09:01:05;;;;;;;;;;;;;;;2.72;45.77;98597.13;4411100;32;33156;-91
2024/01/16 09:03:33;;;;;;;;;;;;;;;2.79;45.39;98608.44;4410726;32;32369;-92
2024/01/16 09:06:01;;;;;;;;;;;;;;;2.97;45.20;98605.66;4398164;32;33194;-93
2024/01/16 09:08:37;;;;;;;;;;;;;;;3.68;44.35;98617.38;4399033;32;33067;-92
2024/01/16 09:11:05;;;;;;;;;;;;;;;3.36;45.05;98609.50;4398244;32;33520;-92
2024/01/16 09:13:41;;;;;;;;;;;;;;;3.41;44.76;98623.38;4411483;32;32468;-91
2024/01/16 09:16:10;;;;;;;;;;;;;;;3.48;44.15;98611.59;4410501;32;33070;-92
2024/01/16 09:18:58;;;;;;;;;;;;;;;3.35;44.42;98606.91;4421712;32;33182;-92
2024/01/16 09:21:26;;;;;;;;;;;;;;;3.92;43.34;98616.38;4423713;32;34453;-91
2024/01/16 09:23:55;;;;;;;;;;;;;;;3.47;43.92;98612.41;4437347;32;33507;-92
2024/01/16 09:26:23;;;;;;;;;;;;;;;3.48;44.23;98616.72;4423432;32;34057;-91
2024/01/16 09:28:50;;;;;;;;;;;;;;;3.13;44.44;98618.12;4423378;32;34449;-92
2024/01/16 09:31:18;;;;;;;;;;;;;;;3.28;44.45;98616.09;4410360;32;33182;-92
2024/01/16 09:33:45;;;;;;;;;;;;;;;3.06;44.91;98606.81;4410859;32;33762;-92
2024/01/16 09:36:13;;;;;;;;;;;;;;;3.11;44.27;98607.00;4409961;32;34256;-92
2024/01/16 09:38:41;;;;;;;;;;;;;;;3.36;43.89;98608.63;4410308;32;33100;-92
2024/01/16 09:41:09;;;;;;;;;;;;;;;3.63;43.91;98618.91;4398023;32;33442;-91
2024/01/16 09:43:37;;;;;;;;;;;;;;;3.86;43.28;98611.91;4397966;32;33536;-91
2024/01/16 09:46:04;;;;;;;;;;;;;;;3.68;43.71;98612.25;4397370;32;34230;-92
2024/01/16 09:48:33;;;;;;;;;;;;;;;3.48;43.99;98609.03;4410716;32;33299;-92
2024/01/16 09:51:01;;;;;;;;;;;;;;;3.98;43.63;98617.44;4423297;32;33897;-91
2024/01/16 09:53:28;;;;;;;;;;;;;;;4.45;43.19;98611.94;4410395;32;32334;-88
2024/01/16 09:55:57;;;;;;;;;;;;;;;3.79;43.87;98616.00;4410484;32;34161;-91
2024/01/16 09:58:27;;;;;;;;;;;;;;;4.13;43.96;98612.75;4423399;32;34251;-91
2024/01/16 10:00:54;;;;;;;;;;;;;;;4.08;43.81;98613.44;4422776;32;34547;-92
2024/01/16 10:03:22;;;;;;;;;;;;;;;3.78;44.10;98614.25;4410345;32;32929;-91
2024/01/16 10:05:49;;;;;;;;;;;;;;;3.60;44.38;98611.13;4423124;32;34649;-92
2024/01/16 10:08:21;;;;;;;;;;;;;;;3.82;44.56;98620.34;4408905;32;32804;-91
2024/01/16 10:10:50;;;;;;;;;;;;;;;3.79;44.41;98607.41;4398296;32;32684;-91
2024/01/16 10:13:19;;;;;;;;;;;;;;;3.70;44.65;98610.56;4410624;32;32878;-91
2024/01/16 10:15:49;;;;;;;;;;;;;;;3.85;43.98;98610.19;4422783;32;33750;-91
2024/01/16 10:18:24;;;;;;;;;;;;;;;3.29;45.10;98616.94;4410295;32;33424;-92
2024/01/16 10:20:55;;;;;;;;;;;;;;;3.97;44.00;98605.41;4423404;32;34513;-91
2024/01/16 10:23:26;;;;;;;;;;;;;;;3.84;43.43;98611.88;4437088;32;33224;-91
2024/01/16 10:26:10;;;;;;;;;;;;;;;4.17;42.73;98613.72;4423040;32;34905;-91
2024/01/16 10:28:39;;;;;;;;;;;;;;;4.39;41.66;98607.47;4423294;32;34932;-92
2024/01/16 10:31:11;;;;;;;;;;;;;;;3.98;42.31;98611.41;4423213;32;34534;-91
2024/01/16 10:33:40;;;;;;;;;;;;;;;3.77;42.46;98620.19;4410307;32;33428;-91
2024/01/16 10:36:25;;;;;;;;;;;;;;;3.57;41.81;98617.03;4424816;32;32957;-91
2024/01/16 10:38:57;;;;;;;;;;;;;;;3.85;41.01;98613.59;4410129;32;33219;-92
2024/01/16 10:41:25;;;;;;;;;;;;;;;4.17;39.81;98621.41;4422945;32;33115;-92
2024/01/16 10:44:03;;;;;;;;;;;;;;;4.14;39.92;98623.88;4397344;32;32179;-91
2024/01/16 10:46:49;;;;;;;;;;;;;;;3.99;40.51;98615.72;4410205;32;33315;-91
2024/01/16 10:49:18;;;;;;;;;;;;;;;4.22;39.81;98609.56;4435449;32;33891;-91
2024/01/16 10:51:46;;;;;;;;;;;;;;;4.55;39.15;98609.66;4397575;32;34562;-92
2024/01/16 10:54:14;;;;;;;;;;;;;;;4.28;39.50;98621.69;4410264;32;32237;-91
2024/01/16 10:56:43;;;;;;;;;;;;;;;4.30;39.68;98620.91;4409843;32;33229;-91
2024/01/16 10:59:16;;;;;;;;;;;;;;;4.22;40.24;98616.41;4409502;32;33449;-91
2024/01/16 11:01:45;;;;;;;;;;;;;;;4.19;40.01;98612.03;4410022;32;33279;-92
2024/01/16 11:04:12;;;;;;;;;;;;;;;4.61;39.39;98616.66;4422623;32;33945;-91
2024/01/16 11:06:42;;;;;;;;;;;;;;;4.40;39.40;98616.94;4410148;32;32957;-91
2024/01/16 11:09:12;;;;;;;;;;;;;;;4.15;40.22;98612.78;4397534;32;32781;-91
2024/01/16 11:11:39;;;;;;;;;;;;;;;4.01;40.99;98611.50;4409970;32;33240;-92
2024/01/16 11:14:07;;;;;;;;;;;;;;;4.33;39.99;98610.75;4397302;32;32599;-91
2024/01/16 11:16:35;;;;;;;;;;;;;;;4.19;40.40;98621.44;4422919;32;33345;-92
2024/01/16 11:19:03;;;;;;;;;;;;;;;4.41;39.80;98617.81;4397703;32;33865;-88
2024/01/16 11:21:51;;;;;;;;;;;;;;;3.96;40.14;98613.94;4399433;32;33708;-93
2024/01/16 11:24:18;;;;;;;;;;;;;;;3.72;40.84;98608.94;4409947;32;32314;-91
2024/01/16 11:26:46;;;;;;;;;;;;;;;3.86;41.03;98607.69;4422865;32;33848;-92
2024/01/16 11:29:26;;;;;;;;;;;;;;;4.28;40.35;98608.88;4409527;32;33190;-92
2024/01/16 11:31:55;;;;;;;;;;;;;;;4.28;40.02;98616.56;4409964;32;33290;-91
2024/01/16 11:34:43;;;;;;;;;;;;;;;4.48;39.76;98604.31;4411745;32;32426;-91
2024/01/16 11:37:12;;;;;;;;;;;;;;;4.52;40.06;98606.13;4422339;32;33694;-92
2024/01/16 11:39:42;;;;;;;;;;;;;;;4.85;39.12;98609.62;4409949;32;33364;-92
2024/01/16 11:42:10;;;;;;;;;;;;;;;4.10;40.21;98606.66;4397595;32;32909;-91
2024/01/16 11:44:54;;;;;;;;;;;;;;;4.27;39.79;98610.56;4397177;32;33026;-91
2024/01/16 11:47:22;;;;;;;;;;;;;;;4.55;39.36;98611.38;4423186;32;34455;-89
2024/01/16 11:49:51;;;;;;;;;;;;;;;3.79;40.51;98612.53;4436469;32;34802;-92
2024/01/16 11:52:38;;;;;;;;;;;;;;;4.12;39.88;98605.00;4397318;32;33542;-91
2024/01/16 11:55:25;;;;;;;;;;;;;;;3.84;40.10;98601.63;4409983;32;33969;-92
2024/01/16 11:57:55;;;;;;;;;;;;;;;4.54;39.27;98601.91;4409470;32;32906;-91
2024/01/16 12:00:23;;;;;;;;;;;;;;;3.97;39.98;98605.41;4408764;32;33417;-91
2024/01/16 12:02:56;;;;;;;;;;;;;;;4.22;39.75;98601.88;4409365;32;34470;-92
2024/01/16 12:05:24;;;;;;;;;;;;;;;4.09;40.12;98608.34;4409568;32;33571;-91
2024/01/16 12:07:53;;;;;;;;;;;;;;;3.76;40.66;98605.66;4409560;32;33234;-92
2024/01/16 12:10:50;;;;;;;;;;;;;;;4.31;40.08;98612.38;4435215;32;35004;-91
2024/01/16 12:13:18;;;;;;;;;;;;;;;4.62;39.17;98602.97;4422806;32;34439;-92
2024/01/16 12:15:48;;;;;;;;;;;;;;;4.21;39.54;98604.41;4422305;32;33373;-92
2024/01/16 12:18:19;;;;;;;;;;;;;;;4.00;39.55;98602.94;4397068;32;33756;-92
2024/01/16 12:21:09;;;;;;;;;;;;;;;4.36;39.00;98600.56;4424106;32;35163;-92
2024/01/16 12:23:37;;;;;;;;;;;;;;;4.17;39.48;98607.69;4409310;32;34199;-91
2024/01/16 12:26:22;;;;;;;;;;;;;;;3.87;39.86;98606.84;4410242;32;33391;-91
2024/01/16 12:28:53;;;;;;;;;;;;;;;4.18;39.72;98605.19;4409075;32;33252;-91
2024/01/16 12:31:27;;;;;;;;;;;;;;;4.43;38.91;98608.44;4409607;32;33240;-92
2024/01/16 12:34:04;;;;;;;;;;;;;;;4.69;38.78;98604.88;4409071;32;32850;-91
2024/01/16 12:36:32;;;;;;;;;;;;;;;4.32;38.92;98610.72;4396534;32;33539;-92
2024/01/16 12:38:59;;;;;;;;;;;;;;;4.31;39.05;98612.38;4409235;32;33806;-85
2024/01/16 12:41:30;;;;;;;;;;;;;;;4.85;37.84;98590.78;4408677;32;33084;-92
2024/01/16 12:44:09;;;;;;;;;;;;;;;4.52;38.41;98603.56;4422989;32;34310;-92
2024/01/16 12:46:56;;;;;;;;;;;;;;;4.38;38.05;98603.19;4418778;32;32908;-84
2024/01/16 12:49:45;;;;;;;;;;;;;;;4.34;37.92;98606.47;4408345;32;34321;-92
2024/01/16 12:52:20;;;;;;;;;;;;;;;4.72;37.57;98592.13;4406731;32;33126;-92
2024/01/16 12:54:58;;;;;;;;;;;;;;;4.92;37.16;98587.50;4393736;32;32692;-91
2024/01/16 12:57:25;;;;;;;;;;;;;;;4.79;36.86;98612.00;4406516;32;33305;-93
2024/01/16 13:00:18;;;;;;;;;;;;;;;4.42;37.37;98593.88;4394578;32;32733;-92
2024/01/16 13:02:48;;;;;;;;;;;;;;;4.91;36.73;98600.31;4418774;32;33533;-92
2024/01/16 13:05:17;;;;;;;;;;;;;;;4.64;36.58;98597.06;4406160;32;34339;-92
2024/01/16 13:07:59;;;;;;;;;;;;;;;4.77;36.46;98599.94;4406206;32;32323;-92
2024/01/16 13:10:27;;;;;;;;;;;;;;;5.04;36.12;98599.81;4402900;32;33767;-91